sensor_id;sensor_type;location;lat;lon;timestamp;P1;durP1;ratioP1;P2;durP2;ratioP2
7729;SDS011;3908;52.310;7.230;2023-08-08T00:02:20;108.43;;;102.53;;
7729;SDS011;3908;52.310;7.230;2023-08-08T00:05:07;99.97;;;95.40;;
7729;SDS011;3908;52.310;7.230;2023-08-08T00:07:54;101.47;;;96.97;;
7729;SDS011;3908;52.310;7.230;2023-08-08T00:10:40;109.83;;;104.77;;
7729;SDS011;3908;52.310;7.230;2023-08-08T00:13:27;125.97;;;119.83;;
7729;SDS011;3908;52.310;7.230;2023-08-08T00:16:15;133.33;;;127.17;;
7729;SDS011;3908;52.310;7.230;2023-08-08T00:19:02;123.30;;;117.80;;
7729;SDS011;3908;52.310;7.230;2023-08-08T00:21:49;137.93;;;131.93;;
7729;SDS011;3908;52.310;7.230;2023-08-08T00:24:35;142.53;;;135.73;;
7729;SDS011;3908;52.310;7.230;2023-08-08T00:27:22;128.43;;;122.50;;
7729;SDS011;3908;52.310;7.230;2023-08-08T00:30:10;125.07;;;119.37;;
7729;SDS011;3908;52.310;7.230;2023-08-08T00:32:58;126.33;;;120.53;;
7729;SDS011;3908;52.310;7.230;2023-08-08T00:35:45;77.87;;;74.23;;
7729;SDS011;3908;52.310;7.230;2023-08-08T00:38:32;70.53;;;67.07;;
7729;SDS011;3908;52.310;7.230;2023-08-08T00:41:18;90.40;;;86.17;;
7729;SDS011;3908;52.310;7.230;2023-08-08T00:44:05;109.13;;;103.97;;
7729;SDS011;3908;52.310;7.230;2023-08-08T00:46:52;109.80;;;104.53;;
7729;SDS011;3908;52.310;7.230;2023-08-08T00:49:40;131.33;;;125.13;;
7729;SDS011;3908;52.310;7.230;2023-08-08T00:52:29;158.33;;;150.27;;
7729;SDS011;3908;52.310;7.230;2023-08-08T00:55:16;155.97;;;147.63;;
7729;SDS011;3908;52.310;7.230;2023-08-08T00:58:03;151.17;;;143.70;;
7729;SDS011;3908;52.310;7.230;2023-08-08T01:00:50;129.27;;;122.67;;
7729;SDS011;3908;52.310;7.230;2023-08-08T01:03:37;108.37;;;103.00;;
7729;SDS011;3908;52.310;7.230;2023-08-08T01:06:28;99.23;;;94.33;;
7729;SDS011;3908;52.310;7.230;2023-08-08T01:09:17;89.83;;;85.10;;
7729;SDS011;3908;52.310;7.230;2023-08-08T01:12:05;75.13;;;71.30;;
7729;SDS011;3908;52.310;7.230;2023-08-08T01:14:52;74.90;;;70.73;;
7729;SDS011;3908;52.310;7.230;2023-08-08T01:17:40;69.23;;;65.70;;
7729;SDS011;3908;52.310;7.230;2023-08-08T01:20:28;58.70;;;55.43;;
7729;SDS011;3908;52.310;7.230;2023-08-08T01:23:18;54.73;;;51.80;;
7729;SDS011;3908;52.310;7.230;2023-08-08T01:26:07;57.80;;;54.83;;
7729;SDS011;3908;52.310;7.230;2023-08-08T01:28:53;60.43;;;56.23;;
7729;SDS011;3908;52.310;7.230;2023-08-08T01:31:40;80.27;;;76.40;;
7729;SDS011;3908;52.310;7.230;2023-08-08T01:34:27;85.10;;;81.10;;
7729;SDS011;3908;52.310;7.230;2023-08-08T01:37:14;85.63;;;81.63;;
7729;SDS011;3908;52.310;7.230;2023-08-08T01:40:03;95.73;;;91.23;;
7729;SDS011;3908;52.310;7.230;2023-08-08T01:42:52;105.90;;;101.10;;
7729;SDS011;3908;52.310;7.230;2023-08-08T01:45:40;102.37;;;97.63;;
7729;SDS011;3908;52.310;7.230;2023-08-08T01:48:27;93.03;;;88.40;;
7729;SDS011;3908;52.310;7.230;2023-08-08T01:51:14;97.60;;;92.93;;
7729;SDS011;3908;52.310;7.230;2023-08-08T01:54:01;90.83;;;86.53;;
7729;SDS011;3908;52.310;7.230;2023-08-08T01:56:48;73.97;;;70.10;;
7729;SDS011;3908;52.310;7.230;2023-08-08T01:59:36;67.07;;;63.30;;
7729;SDS011;3908;52.310;7.230;2023-08-08T02:02:23;57.87;;;54.77;;
7729;SDS011;3908;52.310;7.230;2023-08-08T02:05:10;45.13;;;42.60;;
7729;SDS011;3908;52.310;7.230;2023-08-08T02:07:56;43.40;;;41.07;;
7729;SDS011;3908;52.310;7.230;2023-08-08T02:10:43;35.23;;;33.40;;
7729;SDS011;3908;52.310;7.230;2023-08-08T02:13:30;38.23;;;35.97;;
7729;SDS011;3908;52.310;7.230;2023-08-08T02:16:18;34.67;;;32.53;;
7729;SDS011;3908;52.310;7.230;2023-08-08T02:19:05;35.90;;;33.67;;
7729;SDS011;3908;52.310;7.230;2023-08-08T02:21:51;39.30;;;36.57;;
7729;SDS011;3908;52.310;7.230;2023-08-08T02:24:38;50.87;;;47.97;;
7729;SDS011;3908;52.310;7.230;2023-08-08T02:27:25;58.43;;;55.33;;
7729;SDS011;3908;52.310;7.230;2023-08-08T02:30:12;61.43;;;57.80;;
7729;SDS011;3908;52.310;7.230;2023-08-08T02:33:00;73.53;;;69.90;;
7729;SDS011;3908;52.310;7.230;2023-08-08T02:35:47;74.57;;;70.60;;
7729;SDS011;3908;52.310;7.230;2023-08-08T02:38:34;76.87;;;72.90;;
7729;SDS011;3908;52.310;7.230;2023-08-08T02:41:21;74.43;;;70.47;;
7729;SDS011;3908;52.310;7.230;2023-08-08T02:44:07;73.47;;;69.57;;
7729;SDS011;3908;52.310;7.230;2023-08-08T02:46:54;77.40;;;73.07;;
7729;SDS011;3908;52.310;7.230;2023-08-08T02:49:42;77.63;;;73.73;;
7729;SDS011;3908;52.310;7.230;2023-08-08T02:52:29;79.47;;;75.47;;
7729;SDS011;3908;52.310;7.230;2023-08-08T02:55:16;87.00;;;82.70;;
7729;SDS011;3908;52.310;7.230;2023-08-08T02:58:03;71.27;;;67.77;;
7729;SDS011;3908;52.310;7.230;2023-08-08T03:00:49;54.57;;;51.33;;
7729;SDS011;3908;52.310;7.230;2023-08-08T03:03:36;62.17;;;58.73;;
7729;SDS011;3908;52.310;7.230;2023-08-08T03:06:24;59.47;;;55.83;;
7729;SDS011;3908;52.310;7.230;2023-08-08T03:09:11;63.30;;;59.90;;
7729;SDS011;3908;52.310;7.230;2023-08-08T03:11:58;82.50;;;78.13;;
7729;SDS011;3908;52.310;7.230;2023-08-08T03:14:45;83.87;;;78.90;;
7729;SDS011;3908;52.310;7.230;2023-08-08T03:17:32;69.23;;;65.23;;
7729;SDS011;3908;52.310;7.230;2023-08-08T03:20:18;71.93;;;68.00;;
7729;SDS011;3908;52.310;7.230;2023-08-08T03:23:07;77.63;;;73.17;;
7729;SDS011;3908;52.310;7.230;2023-08-08T03:25:53;88.97;;;84.27;;
7729;SDS011;3908;52.310;7.230;2023-08-08T03:28:40;114.13;;;107.60;;
7729;SDS011;3908;52.310;7.230;2023-08-08T03:31:27;94.20;;;88.87;;
7729;SDS011;3908;52.310;7.230;2023-08-08T03:34:14;93.40;;;88.17;;
7729;SDS011;3908;52.310;7.230;2023-08-08T03:37:00;95.30;;;89.70;;
7729;SDS011;3908;52.310;7.230;2023-08-08T03:39:48;86.07;;;80.57;;
7729;SDS011;3908;52.310;7.230;2023-08-08T03:42:35;70.97;;;66.93;;
7729;SDS011;3908;52.310;7.230;2023-08-08T03:45:22;52.73;;;49.63;;
7729;SDS011;3908;52.310;7.230;2023-08-08T03:48:09;36.97;;;34.53;;
7729;SDS011;3908;52.310;7.230;2023-08-08T03:50:55;31.77;;;29.37;;
7729;SDS011;3908;52.310;7.230;2023-08-08T03:53:42;30.50;;;28.17;;
7729;SDS011;3908;52.310;7.230;2023-08-08T03:56:30;36.53;;;33.97;;
7729;SDS011;3908;52.310;7.230;2023-08-08T03:59:17;39.97;;;37.00;;
7729;SDS011;3908;52.310;7.230;2023-08-08T04:02:04;31.27;;;29.13;;
7729;SDS011;3908;52.310;7.230;2023-08-08T04:04:50;28.63;;;26.33;;
7729;SDS011;3908;52.310;7.230;2023-08-08T04:07:37;30.43;;;28.13;;
7729;SDS011;3908;52.310;7.230;2023-08-08T04:10:24;29.50;;;27.50;;
7729;SDS011;3908;52.310;7.230;2023-08-08T04:13:12;34.40;;;32.17;;
7729;SDS011;3908;52.310;7.230;2023-08-08T04:15:59;37.17;;;34.87;;
7729;SDS011;3908;52.310;7.230;2023-08-08T04:18:46;43.87;;;40.87;;
7729;SDS011;3908;52.310;7.230;2023-08-08T04:21:33;60.53;;;56.17;;
7729;SDS011;3908;52.310;7.230;2023-08-08T04:24:19;76.13;;;71.57;;
7729;SDS011;3908;52.310;7.230;2023-08-08T04:27:06;70.27;;;66.03;;
7729;SDS011;3908;52.310;7.230;2023-08-08T04:29:54;98.30;;;92.20;;
7729;SDS011;3908;52.310;7.230;2023-08-08T04:32:41;119.47;;;112.10;;
7729;SDS011;3908;52.310;7.230;2023-08-08T04:35:28;116.93;;;109.57;;
7729;SDS011;3908;52.310;7.230;2023-08-08T04:38:14;111.73;;;105.23;;
7729;SDS011;3908;52.310;7.230;2023-08-08T04:41:01;99.43;;;93.40;;
7729;SDS011;3908;52.310;7.230;2023-08-08T04:43:48;87.33;;;82.40;;
7729;SDS011;3908;52.310;7.230;2023-08-08T04:46:36;97.23;;;91.97;;
7729;SDS011;3908;52.310;7.230;2023-08-08T04:49:23;73.87;;;69.60;;
7729;SDS011;3908;52.310;7.230;2023-08-08T04:52:09;50.10;;;47.13;;
7729;SDS011;3908;52.310;7.230;2023-08-08T04:54:56;52.77;;;49.27;;
7729;SDS011;3908;52.310;7.230;2023-08-08T04:57:43;47.97;;;44.83;;
7729;SDS011;3908;52.310;7.230;2023-08-08T05:00:30;54.87;;;51.37;;
7729;SDS011;3908;52.310;7.230;2023-08-08T05:03:18;39.23;;;36.57;;
7729;SDS011;3908;52.310;7.230;2023-08-08T05:06:05;31.93;;;29.67;;
7729;SDS011;3908;52.310;7.230;2023-08-08T05:08:52;37.30;;;34.33;;
7729;SDS011;3908;52.310;7.230;2023-08-08T05:11:38;32.90;;;30.53;;
7729;SDS011;3908;52.310;7.230;2023-08-08T05:14:25;43.97;;;41.30;;
7729;SDS011;3908;52.310;7.230;2023-08-08T05:17:12;52.57;;;49.13;;
7729;SDS011;3908;52.310;7.230;2023-08-08T05:20:00;48.27;;;45.17;;
7729;SDS011;3908;52.310;7.230;2023-08-08T05:22:47;35.97;;;33.73;;
7729;SDS011;3908;52.310;7.230;2023-08-08T05:25:34;50.13;;;47.20;;
7729;SDS011;3908;52.310;7.230;2023-08-08T05:28:21;50.77;;;47.77;;
7729;SDS011;3908;52.310;7.230;2023-08-08T05:31:08;82.93;;;78.57;;
7729;SDS011;3908;52.310;7.230;2023-08-08T05:33:55;137.10;;;130.20;;
7729;SDS011;3908;52.310;7.230;2023-08-08T05:36:43;95.10;;;90.20;;
7729;SDS011;3908;52.310;7.230;2023-08-08T05:39:30;81.27;;;77.20;;
7729;SDS011;3908;52.310;7.230;2023-08-08T05:42:17;119.57;;;113.10;;
7729;SDS011;3908;52.310;7.230;2023-08-08T05:45:04;150.20;;;142.53;;
7729;SDS011;3908;52.310;7.230;2023-08-08T05:47:51;76.37;;;72.23;;
7729;SDS011;3908;52.310;7.230;2023-08-08T05:50:38;88.97;;;84.17;;
7729;SDS011;3908;52.310;7.230;2023-08-08T05:53:26;102.80;;;97.70;;
7729;SDS011;3908;52.310;7.230;2023-08-08T05:56:13;86.23;;;81.90;;
7729;SDS011;3908;52.310;7.230;2023-08-08T05:59:00;119.77;;;113.50;;
7729;SDS011;3908;52.310;7.230;2023-08-08T06:01:46;89.37;;;84.77;;
7729;SDS011;3908;52.310;7.230;2023-08-08T06:04:33;99.73;;;94.70;;
7729;SDS011;3908;52.310;7.230;2023-08-08T06:07:20;43.17;;;40.90;;
7729;SDS011;3908;52.310;7.230;2023-08-08T06:10:08;16.27;;;15.07;;
7729;SDS011;3908;52.310;7.230;2023-08-08T06:12:55;20.67;;;19.33;;
7729;SDS011;3908;52.310;7.230;2023-08-08T06:15:42;21.50;;;20.00;;
7729;SDS011;3908;52.310;7.230;2023-08-08T06:18:29;25.30;;;23.60;;
7729;SDS011;3908;52.310;7.230;2023-08-08T06:21:16;26.43;;;24.87;;
7729;SDS011;3908;52.310;7.230;2023-08-08T06:24:02;51.60;;;48.67;;
7729;SDS011;3908;52.310;7.230;2023-08-08T06:26:51;33.30;;;31.30;;
7729;SDS011;3908;52.310;7.230;2023-08-08T06:29:37;39.53;;;36.77;;
7729;SDS011;3908;52.310;7.230;2023-08-08T06:32:24;35.70;;;33.50;;
7729;SDS011;3908;52.310;7.230;2023-08-08T06:35:11;31.63;;;29.63;;
7729;SDS011;3908;52.310;7.230;2023-08-08T06:37:58;30.07;;;27.97;;
7729;SDS011;3908;52.310;7.230;2023-08-08T06:40:44;36.57;;;34.57;;
7729;SDS011;3908;52.310;7.230;2023-08-08T06:43:32;89.37;;;84.73;;
7729;SDS011;3908;52.310;7.230;2023-08-08T06:46:19;47.93;;;44.70;;
7729;SDS011;3908;52.310;7.230;2023-08-08T06:49:06;53.30;;;50.30;;
7729;SDS011;3908;52.310;7.230;2023-08-08T06:51:54;43.80;;;41.13;;
7729;SDS011;3908;52.310;7.230;2023-08-08T06:54:41;68.20;;;64.57;;
7729;SDS011;3908;52.310;7.230;2023-08-08T06:57:28;55.57;;;52.37;;
7729;SDS011;3908;52.310;7.230;2023-08-08T07:00:16;17.77;;;16.17;;
7729;SDS011;3908;52.310;7.230;2023-08-08T07:03:03;19.80;;;18.30;;
7729;SDS011;3908;52.310;7.230;2023-08-08T07:05:50;59.67;;;56.37;;
7729;SDS011;3908;52.310;7.230;2023-08-08T07:08:37;93.60;;;88.97;;
7729;SDS011;3908;52.310;7.230;2023-08-08T07:11:24;123.00;;;116.60;;
7729;SDS011;3908;52.310;7.230;2023-08-08T07:14:11;131.90;;;124.67;;
7729;SDS011;3908;52.310;7.230;2023-08-08T07:16:59;104.23;;;99.00;;
7729;SDS011;3908;52.310;7.230;2023-08-08T07:19:48;55.47;;;52.57;;
7729;SDS011;3908;52.310;7.230;2023-08-08T07:22:36;64.60;;;61.33;;
7729;SDS011;3908;52.310;7.230;2023-08-08T07:25:23;66.83;;;63.40;;
7729;SDS011;3908;52.310;7.230;2023-08-08T07:28:10;75.93;;;72.13;;
7729;SDS011;3908;52.310;7.230;2023-08-08T07:30:56;69.67;;;66.07;;
7729;SDS011;3908;52.310;7.230;2023-08-08T07:33:45;81.10;;;77.00;;
7729;SDS011;3908;52.310;7.230;2023-08-08T07:36:31;138.20;;;131.60;;
7729;SDS011;3908;52.310;7.230;2023-08-08T07:39:18;74.43;;;70.33;;
7729;SDS011;3908;52.310;7.230;2023-08-08T07:42:05;27.20;;;25.47;;
7729;SDS011;3908;52.310;7.230;2023-08-08T07:44:52;29.07;;;27.57;;
7729;SDS011;3908;52.310;7.230;2023-08-08T07:47:39;39.93;;;37.73;;
7729;SDS011;3908;52.310;7.230;2023-08-08T07:50:27;41.97;;;39.90;;
7729;SDS011;3908;52.310;7.230;2023-08-08T07:53:13;34.57;;;32.80;;
7729;SDS011;3908;52.310;7.230;2023-08-08T07:56:00;24.97;;;23.47;;
7729;SDS011;3908;52.310;7.230;2023-08-08T07:58:47;18.07;;;16.97;;
7729;SDS011;3908;52.310;7.230;2023-08-08T08:01:34;13.57;;;12.37;;
7729;SDS011;3908;52.310;7.230;2023-08-08T08:04:20;9.90;;;9.03;;
7729;SDS011;3908;52.310;7.230;2023-08-08T08:07:09;16.53;;;15.57;;
7729;SDS011;3908;52.310;7.230;2023-08-08T08:09:55;13.60;;;12.70;;
7729;SDS011;3908;52.310;7.230;2023-08-08T08:12:42;19.57;;;18.37;;
7729;SDS011;3908;52.310;7.230;2023-08-08T08:15:29;22.27;;;20.87;;
7729;SDS011;3908;52.310;7.230;2023-08-08T08:18:16;36.37;;;34.53;;
7729;SDS011;3908;52.310;7.230;2023-08-08T08:21:03;63.50;;;60.30;;
7729;SDS011;3908;52.310;7.230;2023-08-08T08:23:51;80.73;;;76.93;;
7729;SDS011;3908;52.310;7.230;2023-08-08T08:26:38;89.60;;;85.37;;
7729;SDS011;3908;52.310;7.230;2023-08-08T08:29:25;114.03;;;109.17;;
7729;SDS011;3908;52.310;7.230;2023-08-08T08:32:11;88.05;;;83.95;;
7729;SDS011;3908;52.310;7.230;2023-08-08T08:34:58;127.33;;;121.67;;
7729;SDS011;3908;52.310;7.230;2023-08-08T08:37:45;182.43;;;173.83;;
7729;SDS011;3908;52.310;7.230;2023-08-08T08:40:34;80.32;;;76.15;;
7729;SDS011;3908;52.310;7.230;2023-08-08T08:43:22;150.73;;;143.30;;
7729;SDS011;3908;52.310;7.230;2023-08-08T08:46:09;153.07;;;146.27;;
7729;SDS011;3908;52.310;7.230;2023-08-08T08:48:57;237.38;;;225.63;;
7729;SDS011;3908;52.310;7.230;2023-08-08T08:51:45;252.77;;;240.38;;
7729;SDS011;3908;52.310;7.230;2023-08-08T08:54:32;103.70;;;98.47;;
7729;SDS011;3908;52.310;7.230;2023-08-08T08:57:21;107.35;;;102.00;;
7729;SDS011;3908;52.310;7.230;2023-08-08T09:00:09;232.30;;;220.98;;
7729;SDS011;3908;52.310;7.230;2023-08-08T09:02:56;168.02;;;159.95;;
7729;SDS011;3908;52.310;7.230;2023-08-08T09:05:43;241.68;;;230.13;;
7729;SDS011;3908;52.310;7.230;2023-08-08T09:08:30;233.48;;;222.23;;
7729;SDS011;3908;52.310;7.230;2023-08-08T09:11:17;130.25;;;123.47;;
7729;SDS011;3908;52.310;7.230;2023-08-08T09:14:05;100.68;;;95.35;;
7729;SDS011;3908;52.310;7.230;2023-08-08T09:17:02;112.22;;;106.60;;
7729;SDS011;3908;52.310;7.230;2023-08-08T09:19:48;198.48;;;189.30;;
7729;SDS011;3908;52.310;7.230;2023-08-08T09:22:35;76.95;;;73.25;;
7729;SDS011;3908;52.310;7.230;2023-08-08T09:25:22;62.78;;;59.85;;
7729;SDS011;3908;52.310;7.230;2023-08-08T09:28:09;64.35;;;61.33;;
7729;SDS011;3908;52.310;7.230;2023-08-08T09:30:58;58.38;;;55.75;;
7729;SDS011;3908;52.310;7.230;2023-08-08T09:33:45;71.93;;;68.57;;
7729;SDS011;3908;52.310;7.230;2023-08-08T09:36:34;80.97;;;76.70;;
7729;SDS011;3908;52.310;7.230;2023-08-08T09:39:22;44.75;;;42.40;;
7729;SDS011;3908;52.310;7.230;2023-08-08T09:42:09;50.42;;;48.10;;
7729;SDS011;3908;52.310;7.230;2023-08-08T09:44:57;63.03;;;59.95;;
7729;SDS011;3908;52.310;7.230;2023-08-08T09:47:45;69.88;;;66.40;;
7729;SDS011;3908;52.310;7.230;2023-08-08T09:50:32;69.75;;;66.13;;
7729;SDS011;3908;52.310;7.230;2023-08-08T09:53:20;62.17;;;59.22;;
7729;SDS011;3908;52.310;7.230;2023-08-08T09:56:07;166.68;;;157.75;;
7729;SDS011;3908;52.310;7.230;2023-08-08T09:58:54;264.48;;;249.88;;
7729;SDS011;3908;52.310;7.230;2023-08-08T10:01:41;95.90;;;90.80;;
7729;SDS011;3908;52.310;7.230;2023-08-08T10:04:29;96.88;;;91.50;;
7729;SDS011;3908;52.310;7.230;2023-08-08T10:07:16;63.47;;;59.97;;
7729;SDS011;3908;52.310;7.230;2023-08-08T10:10:03;34.38;;;32.50;;
7729;SDS011;3908;52.310;7.230;2023-08-08T10:12:50;29.00;;;27.45;;
7729;SDS011;3908;52.310;7.230;2023-08-08T10:15:38;24.08;;;22.70;;
7729;SDS011;3908;52.310;7.230;2023-08-08T10:18:26;19.20;;;18.13;;
7729;SDS011;3908;52.310;7.230;2023-08-08T10:21:15;16.85;;;15.95;;
7729;SDS011;3908;52.310;7.230;2023-08-08T10:24:04;26.67;;;25.20;;
7729;SDS011;3908;52.310;7.230;2023-08-08T10:26:52;67.90;;;64.57;;
7729;SDS011;3908;52.310;7.230;2023-08-08T10:29:39;106.07;;;100.40;;
7729;SDS011;3908;52.310;7.230;2023-08-08T10:32:26;105.63;;;100.27;;
7729;SDS011;3908;52.310;7.230;2023-08-08T10:35:13;139.53;;;132.03;;
7729;SDS011;3908;52.310;7.230;2023-08-08T10:38:01;135.73;;;129.20;;
7729;SDS011;3908;52.310;7.230;2023-08-08T10:40:47;123.87;;;118.37;;
7729;SDS011;3908;52.310;7.230;2023-08-08T10:43:47;137.73;;;131.53;;
7729;SDS011;3908;52.310;7.230;2023-08-08T10:46:34;71.20;;;67.73;;
7729;SDS011;3908;52.310;7.230;2023-08-08T10:49:21;123.73;;;118.03;;
7729;SDS011;3908;52.310;7.230;2023-08-08T10:52:07;86.13;;;81.90;;
7729;SDS011;3908;52.310;7.230;2023-08-08T10:55:02;28.13;;;26.33;;
7729;SDS011;3908;52.310;7.230;2023-08-08T10:57:55;25.17;;;23.88;;
7729;SDS011;3908;52.310;7.230;2023-08-08T11:00:42;95.97;;;91.83;;
7729;SDS011;3908;52.310;7.230;2023-08-08T11:03:30;142.30;;;136.07;;
7729;SDS011;3908;52.310;7.230;2023-08-08T11:06:17;235.60;;;224.43;;
7729;SDS011;3908;52.310;7.230;2023-08-08T11:09:05;97.47;;;92.55;;
7729;SDS011;3908;52.310;7.230;2023-08-08T11:11:53;240.95;;;228.45;;
7729;SDS011;3908;52.310;7.230;2023-08-08T11:14:40;115.40;;;109.90;;
7729;SDS011;3908;52.310;7.230;2023-08-08T11:17:27;98.38;;;93.78;;
7729;SDS011;3908;52.310;7.230;2023-08-08T11:20:14;86.60;;;82.40;;
7729;SDS011;3908;52.310;7.230;2023-08-08T11:23:01;133.20;;;127.13;;
7729;SDS011;3908;52.310;7.230;2023-08-08T11:25:49;76.75;;;73.15;;
7729;SDS011;3908;52.310;7.230;2023-08-08T11:28:37;80.25;;;76.32;;
7729;SDS011;3908;52.310;7.230;2023-08-08T11:31:24;76.40;;;72.72;;
7729;SDS011;3908;52.310;7.230;2023-08-08T11:34:11;59.67;;;56.78;;
7729;SDS011;3908;52.310;7.230;2023-08-08T11:37:02;53.25;;;50.63;;
7729;SDS011;3908;52.310;7.230;2023-08-08T11:39:49;45.95;;;43.80;;
7729;SDS011;3908;52.310;7.230;2023-08-08T11:42:36;33.17;;;31.58;;
7729;SDS011;3908;52.310;7.230;2023-08-08T11:45:25;46.88;;;44.70;;
7729;SDS011;3908;52.310;7.230;2023-08-08T11:48:12;96.30;;;92.03;;
7729;SDS011;3908;52.310;7.230;2023-08-08T11:50:59;179.63;;;170.35;;
7729;SDS011;3908;52.310;7.230;2023-08-08T11:53:49;182.43;;;173.83;;
7729;SDS011;3908;52.310;7.230;2023-08-08T11:56:37;181.40;;;172.20;;
7729;SDS011;3908;52.310;7.230;2023-08-08T11:59:24;105.10;;;100.10;;
7729;SDS011;3908;52.310;7.230;2023-08-08T12:02:12;53.00;;;50.47;;
7729;SDS011;3908;52.310;7.230;2023-08-08T12:05:03;41.63;;;39.80;;
7729;SDS011;3908;52.310;7.230;2023-08-08T12:07:51;39.17;;;37.30;;
7729;SDS011;3908;52.310;7.230;2023-08-08T12:10:38;35.63;;;33.83;;
7729;SDS011;3908;52.310;7.230;2023-08-08T12:13:24;56.33;;;53.63;;
7729;SDS011;3908;52.310;7.230;2023-08-08T12:16:13;74.97;;;71.43;;
7729;SDS011;3908;52.310;7.230;2023-08-08T12:19:02;95.03;;;90.75;;
7729;SDS011;3908;52.310;7.230;2023-08-08T12:21:49;141.23;;;134.80;;
7729;SDS011;3908;52.310;7.230;2023-08-08T12:24:36;167.38;;;159.30;;
7729;SDS011;3908;52.310;7.230;2023-08-08T12:27:23;118.15;;;112.85;;
7729;SDS011;3908;52.310;7.230;2023-08-08T12:30:10;141.80;;;135.55;;
7729;SDS011;3908;52.310;7.230;2023-08-08T12:32:57;153.80;;;147.00;;
7729;SDS011;3908;52.310;7.230;2023-08-08T12:35:45;64.63;;;61.60;;
7729;SDS011;3908;52.310;7.230;2023-08-08T12:38:32;132.18;;;125.78;;
7729;SDS011;3908;52.310;7.230;2023-08-08T12:41:19;67.10;;;63.95;;
7729;SDS011;3908;52.310;7.230;2023-08-08T12:44:05;68.47;;;64.90;;
7729;SDS011;3908;52.310;7.230;2023-08-08T12:46:53;100.72;;;96.10;;
7729;SDS011;3908;52.310;7.230;2023-08-08T12:49:40;55.88;;;53.42;;
7729;SDS011;3908;52.310;7.230;2023-08-08T12:52:28;37.17;;;35.55;;
7729;SDS011;3908;52.310;7.230;2023-08-08T12:55:15;34.67;;;33.08;;
7729;SDS011;3908;52.310;7.230;2023-08-08T12:58:03;46.22;;;44.08;;
7729;SDS011;3908;52.310;7.230;2023-08-08T13:00:50;68.47;;;65.55;;
7729;SDS011;3908;52.310;7.230;2023-08-08T13:03:37;44.47;;;42.35;;
7729;SDS011;3908;52.310;7.230;2023-08-08T13:06:25;43.42;;;41.35;;
7729;SDS011;3908;52.310;7.230;2023-08-08T13:09:13;53.90;;;51.60;;
7729;SDS011;3908;52.310;7.230;2023-08-08T13:12:01;97.10;;;91.93;;
7729;SDS011;3908;52.310;7.230;2023-08-08T13:14:48;166.95;;;157.82;;
7729;SDS011;3908;52.310;7.230;2023-08-08T13:17:34;293.90;;;278.05;;
7729;SDS011;3908;52.310;7.230;2023-08-08T13:20:21;231.00;;;217.80;;
7729;SDS011;3908;52.310;7.230;2023-08-08T13:23:08;337.40;;;318.90;;
7729;SDS011;3908;52.310;7.230;2023-08-08T13:25:56;224.32;;;212.45;;
7729;SDS011;3908;52.310;7.230;2023-08-08T13:28:43;242.70;;;230.00;;
7729;SDS011;3908;52.310;7.230;2023-08-08T13:31:30;363.35;;;343.98;;
7729;SDS011;3908;52.310;7.230;2023-08-08T13:34:17;338.88;;;320.98;;
7729;SDS011;3908;52.310;7.230;2023-08-08T13:37:04;323.48;;;306.23;;
7729;SDS011;3908;52.310;7.230;2023-08-08T13:39:50;304.27;;;288.52;;
7729;SDS011;3908;52.310;7.230;2023-08-08T13:42:39;226.20;;;214.80;;
7729;SDS011;3908;52.310;7.230;2023-08-08T13:45:26;137.35;;;131.00;;
7729;SDS011;3908;52.310;7.230;2023-08-08T13:48:12;107.18;;;102.20;;
7729;SDS011;3908;52.310;7.230;2023-08-08T13:50:59;111.50;;;106.15;;
7729;SDS011;3908;52.310;7.230;2023-08-08T13:53:46;176.23;;;167.20;;
7729;SDS011;3908;52.310;7.230;2023-08-08T13:56:34;115.93;;;110.35;;
7729;SDS011;3908;52.310;7.230;2023-08-08T13:59:22;96.22;;;91.47;;
7729;SDS011;3908;52.310;7.230;2023-08-08T14:02:09;56.08;;;53.33;;
7729;SDS011;3908;52.310;7.230;2023-08-08T14:04:56;165.70;;;156.80;;
7729;SDS011;3908;52.310;7.230;2023-08-08T14:07:42;179.88;;;170.57;;
7729;SDS011;3908;52.310;7.230;2023-08-08T14:10:29;261.17;;;247.60;;
7729;SDS011;3908;52.310;7.230;2023-08-08T14:13:16;116.88;;;110.93;;
7729;SDS011;3908;52.310;7.230;2023-08-08T14:16:05;275.63;;;261.15;;
7729;SDS011;3908;52.310;7.230;2023-08-08T14:18:52;184.48;;;174.73;;
7729;SDS011;3908;52.310;7.230;2023-08-08T14:21:39;121.00;;;114.72;;
7729;SDS011;3908;52.310;7.230;2023-08-08T14:24:26;97.20;;;91.93;;
7729;SDS011;3908;52.310;7.230;2023-08-08T14:27:13;37.38;;;35.50;;
7729;SDS011;3908;52.310;7.230;2023-08-08T14:29:59;125.85;;;118.97;;
7729;SDS011;3908;52.310;7.230;2023-08-08T14:32:47;223.90;;;212.60;;
7729;SDS011;3908;52.310;7.230;2023-08-08T14:35:36;68.45;;;64.95;;
7729;SDS011;3908;52.310;7.230;2023-08-08T14:38:23;33.25;;;31.70;;
7729;SDS011;3908;52.310;7.230;2023-08-08T14:41:10;28.60;;;27.20;;
7729;SDS011;3908;52.310;7.230;2023-08-08T14:43:57;182.35;;;172.60;;
7729;SDS011;3908;52.310;7.230;2023-08-08T14:46:44;148.48;;;140.93;;
7729;SDS011;3908;52.310;7.230;2023-08-08T14:49:32;146.23;;;138.82;;
7729;SDS011;3908;52.310;7.230;2023-08-08T14:52:19;318.83;;;301.92;;
7729;SDS011;3908;52.310;7.230;2023-08-08T14:55:06;302.00;;;285.95;;
7729;SDS011;3908;52.310;7.230;2023-08-08T14:57:53;321.17;;;304.17;;
7729;SDS011;3908;52.310;7.230;2023-08-08T15:00:40;296.17;;;281.02;;
7729;SDS011;3908;52.310;7.230;2023-08-08T15:03:27;226.82;;;215.30;;
7729;SDS011;3908;52.310;7.230;2023-08-08T15:06:16;57.60;;;54.60;;
7729;SDS011;3908;52.310;7.230;2023-08-08T15:09:03;97.28;;;91.93;;
7729;SDS011;3908;52.310;7.230;2023-08-08T15:11:50;51.83;;;49.15;;
7729;SDS011;3908;52.310;7.230;2023-08-08T15:14:37;48.97;;;46.47;;
7729;SDS011;3908;52.310;7.230;2023-08-08T15:17:23;67.13;;;63.72;;
7729;SDS011;3908;52.310;7.230;2023-08-08T15:20:10;49.80;;;47.20;;
7729;SDS011;3908;52.310;7.230;2023-08-08T15:22:58;180.88;;;171.15;;
7729;SDS011;3908;52.310;7.230;2023-08-08T15:25:45;242.18;;;229.88;;
7729;SDS011;3908;52.310;7.230;2023-08-08T15:28:32;149.10;;;141.73;;
7729;SDS011;3908;52.310;7.230;2023-08-08T15:31:19;107.13;;;101.75;;
7729;SDS011;3908;52.310;7.230;2023-08-08T15:34:06;53.38;;;50.53;;
7729;SDS011;3908;52.310;7.230;2023-08-08T15:36:53;103.38;;;98.13;;
7729;SDS011;3908;52.310;7.230;2023-08-08T15:39:44;96.57;;;91.60;;
7729;SDS011;3908;52.310;7.230;2023-08-08T15:42:31;120.00;;;114.05;;
7729;SDS011;3908;52.310;7.230;2023-08-08T15:45:18;219.80;;;208.85;;
7729;SDS011;3908;52.310;7.230;2023-08-08T15:48:05;177.95;;;168.60;;
7729;SDS011;3908;52.310;7.230;2023-08-08T15:50:52;126.93;;;120.33;;
7729;SDS011;3908;52.310;7.230;2023-08-08T15:53:39;90.55;;;85.75;;
7729;SDS011;3908;52.310;7.230;2023-08-08T15:56:27;21.75;;;20.65;;
7729;SDS011;3908;52.310;7.230;2023-08-08T15:59:14;120.93;;;114.55;;
7729;SDS011;3908;52.310;7.230;2023-08-08T16:02:00;206.10;;;195.63;;
7729;SDS011;3908;52.310;7.230;2023-08-08T16:04:47;213.77;;;203.00;;
7729;SDS011;3908;52.310;7.230;2023-08-08T16:07:34;202.35;;;192.15;;
7729;SDS011;3908;52.310;7.230;2023-08-08T16:10:22;229.73;;;217.70;;
7729;SDS011;3908;52.310;7.230;2023-08-08T16:13:10;204.43;;;194.10;;
7729;SDS011;3908;52.310;7.230;2023-08-08T16:15:57;199.93;;;190.10;;
7729;SDS011;3908;52.310;7.230;2023-08-08T16:18:46;188.93;;;179.83;;
7729;SDS011;3908;52.310;7.230;2023-08-08T16:21:33;167.93;;;159.83;;
7729;SDS011;3908;52.310;7.230;2023-08-08T16:24:19;173.50;;;165.00;;
7729;SDS011;3908;52.310;7.230;2023-08-08T16:27:06;141.93;;;134.80;;
7729;SDS011;3908;52.310;7.230;2023-08-08T16:29:54;142.27;;;135.95;;
7729;SDS011;3908;52.310;7.230;2023-08-08T16:32:42;119.40;;;114.33;;
7729;SDS011;3908;52.310;7.230;2023-08-08T16:35:29;106.73;;;102.17;;
7729;SDS011;3908;52.310;7.230;2023-08-08T16:38:16;79.87;;;76.27;;